Time;durP1;ratioP1;P1;durP2;ratioP2;P2;SDS_P1;SDS_P2;PMS_P1;PMS_P2;Temp;Humidity;BMP_temperature;BMP_pressure;BME280_temperature;BME280_humidity;BME280_pressure;Samples;Min_cycle;Max_cycle;Signal;HPM_P1;HPM_P2
2022/06/16 00:00:47;;;;;;;3.53;2.30;;;16.10;89.40;;;;;;4999315;28;20176;-82
2022/06/16 00:03:13;;;;;;;6.50;2.20;;;16.00;89.80;;;;;;4997967;28;20193;-81
2022/06/16 00:05:42;;;;;;;4.63;2.40;;;16.00;90.30;;;;;;4997689;28;20175;-81
2022/06/16 00:08:10;;;;;;;4.27;2.30;;;16.00;90.10;;;;;;4998945;28;20662;-81
2022/06/16 00:10:36;;;;;;;6.70;2.50;;;15.90;90.50;;;;;;4996579;28;20183;-81
2022/06/16 00:13:03;;;;;;;4.23;2.30;;;15.90;90.80;;;;;;4995934;28;20200;-81
2022/06/16 00:15:29;;;;;;;3.00;2.10;;;15.80;91.20;;;;;;4996621;28;20199;-79
2022/06/16 00:17:57;;;;;;;4.17;2.37;;;15.70;91.00;;;;;;4996199;28;20176;-79
2022/06/16 00:20:23;;;;;;;4.60;2.20;;;15.80;91.30;;;;;;4995989;28;20177;-79
2022/06/16 00:22:49;;;;;;;4.07;2.17;;;15.70;91.30;;;;;;4995723;28;20559;-79
2022/06/16 00:25:15;;;;;;;4.43;2.23;;;15.70;91.30;;;;;;4996094;28;20206;-79
2022/06/16 00:27:42;;;;;;;4.13;2.10;;;15.60;91.10;;;;;;4994994;28;20178;-80
2022/06/16 00:30:09;;;;;;;2.63;1.90;;;15.60;91.40;;;;;;4995671;28;20172;-79
2022/06/16 00:32:41;;;;;;;6.43;2.23;;;15.60;91.00;;;;;;4994790;28;20618;-79
2022/06/16 00:35:07;;;;;;;2.60;1.83;;;15.50;90.90;;;;;;4993892;28;20529;-79
2022/06/16 00:37:33;;;;;;;2.57;1.90;;;15.40;90.90;;;;;;4993539;28;20215;-78
2022/06/16 00:39:58;;;;;;;3.53;2.20;;;15.40;90.70;;;;;;4994062;28;20175;-79
2022/06/16 00:42:25;;;;;;;5.40;2.10;;;15.60;90.30;;;;;;4993561;28;20225;-79
2022/06/16 00:44:57;;;;;;;4.13;2.30;;;15.50;90.60;;;;;;4994323;28;20181;-79
2022/06/16 00:47:26;;;;;;;3.13;2.07;;;15.30;91.10;;;;;;4993840;28;20197;-81
2022/06/16 00:49:55;;;;;;;2.87;1.93;;;15.30;91.40;;;;;;4995422;28;20175;-82
2022/06/16 00:52:27;;;;;;;5.10;2.07;;;15.20;91.30;;;;;;4994164;28;20573;-80
2022/06/16 00:54:57;;;;;;;3.53;1.73;;;15.10;91.50;;;;;;4993668;28;20722;-81
2022/06/16 00:57:30;;;;;;;4.93;1.80;;;15.20;91.00;;;;;;4993811;28;20203;-81
2022/06/16 00:59:57;;;;;;;5.20;2.00;;;15.20;91.00;;;;;;4994031;28;20604;-81
2022/06/16 01:02:26;;;;;;;3.97;1.80;;;15.30;90.70;;;;;;4993703;28;20211;-82
2022/06/16 01:04:51;;;;;;;3.50;1.70;;;15.20;90.70;;;;;;4993322;28;20262;-81
2022/06/16 01:07:39;;;;;;;4.73;1.70;;;15.10;90.70;;;;;;4993975;28;20221;-81
2022/06/16 01:10:06;;;;;;;4.50;1.80;;;15.10;90.80;;;;;;4994394;28;20202;-83
2022/06/16 01:15:37;;;;;;;6.00;2.10;;;15.00;90.90;;;;;;4997038;28;20191;-83
2022/06/16 01:18:15;;;;;;;5.20;1.90;;;15.10;91.30;;;;;;4995753;28;20171;-83
2022/06/16 01:20:52;;;;;;;2.07;1.80;;;15.00;91.60;;;;;;4997502;28;20176;-83
2022/06/16 01:23:17;;;;;;;6.70;1.90;;;15.20;91.20;;;;;;4995859;28;20191;-82
2022/06/16 01:26:11;;;;;;;3.03;1.90;;;15.10;91.30;;;;;;4995314;28;20178;-83
2022/06/16 01:29:14;;;;;;;3.30;1.90;;;15.00;91.30;;;;;;4995149;28;20649;-83
2022/06/16 01:31:58;;;;;;;4.63;1.97;;;15.10;91.50;;;;;;4995251;28;20224;-83
2022/06/16 01:34:34;;;;;;;4.40;2.07;;;15.20;91.20;;;;;;4995452;28;20170;-83
2022/06/16 01:37:12;;;;;;;4.57;1.97;;;15.10;91.30;;;;;;4995142;28;20643;-83
2022/06/16 01:39:41;;;;;;;5.40;1.90;;;15.10;91.30;;;;;;4994378;28;20286;-81
2022/06/16 01:42:19;;;;;;;4.50;1.90;;;15.00;91.50;;;;;;4992963;28;20236;-82
2022/06/16 01:45:06;;;;;;;5.13;1.93;;;15.00;91.60;;;;;;4992529;28;20254;-81
2022/06/16 01:47:34;;;;;;;5.40;1.80;;;15.10;91.50;;;;;;4993135;28;20176;-81
2022/06/16 01:50:34;;;;;;;3.47;1.90;;;15.10;91.40;;;;;;4992868;28;20241;-82
2022/06/16 01:53:09;;;;;;;2.73;1.77;;;15.00;91.60;;;;;;4992033;28;20196;-81
2022/06/16 01:55:40;;;;;;;4.30;2.20;;;14.90;92.10;;;;;;4992638;28;20205;-82
2022/06/16 01:58:27;;;;;;;3.43;2.27;;;14.90;92.10;;;;;;4992684;28;20222;-82
2022/06/16 02:00:56;;;;;;;2.93;2.13;;;14.80;92.20;;;;;;4992365;28;20674;-81
2022/06/16 02:03:28;;;;;;;4.57;2.07;;;14.90;92.30;;;;;;4993117;28;20242;-81
2022/06/16 02:06:12;;;;;;;3.27;2.20;;;14.80;92.20;;;;;;4992677;28;20175;-81
2022/06/16 02:08:42;;;;;;;2.00;1.90;;;14.60;92.80;;;;;;4992904;28;20267;-81
2022/06/16 02:11:16;;;;;;;6.50;1.77;;;14.70;92.70;;;;;;4996092;28;20180;-84
2022/06/16 02:14:20;;;;;;;3.43;1.90;;;14.70;92.50;;;;;;4994245;28;20202;-82
2022/06/16 02:16:47;;;;;;;4.10;2.03;;;14.80;92.70;;;;;;4993615;28;20607;-83
2022/06/16 02:19:16;;;;;;;5.77;2.10;;;14.70;93.30;;;;;;4998898;28;20175;-84
2022/06/16 02:21:48;;;;;;;6.50;2.37;;;14.60;93.40;;;;;;4997780;28;20191;-84
2022/06/16 02:24:17;;;;;;;4.30;2.10;;;14.50;93.30;;;;;;4998816;28;20168;-83
2022/06/16 02:26:44;;;;;;;9.37;2.10;;;14.70;93.20;;;;;;4998428;28;20176;-83
2022/06/16 02:29:33;;;;;;;8.40;2.73;;;14.50;93.80;;;;;;4998828;28;20172;-83
2022/06/16 02:32:33;;;;;;;4.53;1.97;;;14.50;93.80;;;;;;4998609;28;20202;-84
2022/06/16 02:35:35;;;;;;;5.03;2.40;;;14.50;94.20;;;;;;4998141;28;20172;-83
2022/06/16 02:38:12;;;;;;;10.27;2.20;;;14.40;94.70;;;;;;4997730;28;20174;-84
2022/06/16 02:40:58;;;;;;;6.70;2.53;;;14.40;94.50;;;;;;5000006;28;20572;-83
2022/06/16 02:43:36;;;;;;;2.83;2.20;;;14.30;94.80;;;;;;4998179;28;20191;-83
2022/06/16 02:46:25;;;;;;;6.00;2.70;;;14.30;94.70;;;;;;4997487;28;20577;-83
2022/06/16 02:49:02;;;;;;;6.40;2.53;;;14.20;95.10;;;;;;4997202;28;20664;-84
2022/06/16 02:51:42;;;;;;;8.13;2.50;;;14.20;95.10;;;;;;4996703;28;20218;-83
2022/06/16 02:54:21;;;;;;;3.43;2.53;;;14.20;95.00;;;;;;4997814;28;20242;-84
2022/06/16 02:57:13;;;;;;;6.10;2.70;;;14.20;95.10;;;;;;4996877;28;20301;-83
2022/06/16 02:59:47;;;;;;;3.17;2.17;;;14.10;95.70;;;;;;4996472;28;20245;-82
2022/06/16 03:02:22;;;;;;;6.77;2.60;;;14.00;95.90;;;;;;4996691;28;20624;-83
2022/06/16 03:04:54;;;;;;;4.33;2.50;;;14.10;96.00;;;;;;4996053;28;20258;-84
2022/06/16 03:07:21;;;;;;;3.73;2.20;;;13.90;96.40;;;;;;4996012;28;20270;-84
2022/06/16 03:09:46;;;;;;;7.00;2.67;;;13.80;96.50;;;;;;4996934;28;20255;-83
2022/06/16 03:12:14;;;;;;;5.23;2.53;;;13.80;96.40;;;;;;4996438;28;20198;-83
2022/06/16 03:14:40;;;;;;;3.23;2.70;;;13.90;96.30;;;;;;4995795;28;20172;-85
2022/06/16 03:17:07;;;;;;;6.93;2.77;;;13.70;96.90;;;;;;4995730;28;20198;-84
2022/06/16 03:19:33;;;;;;;7.67;2.80;;;13.60;97.10;;;;;;4995854;28;20217;-83
2022/06/16 03:21:59;;;;;;;5.83;2.67;;;13.70;97.30;;;;;;4995827;28;20191;-83
2022/06/16 03:24:25;;;;;;;3.77;2.60;;;13.50;97.60;;;;;;4995624;28;20172;-83
2022/06/16 03:26:51;;;;;;;4.57;2.97;;;13.50;97.60;;;;;;4995343;28;20767;-83
2022/06/16 03:29:18;;;;;;;4.07;2.73;;;13.60;97.70;;;;;;4995630;28;20678;-83
2022/06/16 03:31:43;;;;;;;4.17;2.33;;;13.50;97.90;;;;;;4995014;28;20197;-84
2022/06/16 03:34:09;;;;;;;8.93;2.60;;;13.70;97.20;;;;;;4996074;28;20184;-83
2022/06/16 03:36:37;;;;;;;7.83;2.87;;;13.50;97.90;;;;;;4995014;28;20205;-83
2022/06/16 03:39:04;;;;;;;6.93;2.43;;;13.50;98.20;;;;;;4994962;28;20174;-83
2022/06/16 03:41:30;;;;;;;5.63;2.80;;;13.30;98.70;;;;;;4995215;28;20202;-83
2022/06/16 03:43:56;;;;;;;3.73;2.80;;;13.40;99.00;;;;;;4995004;28;20217;-83
2022/06/16 03:46:22;;;;;;;7.63;3.13;;;13.20;99.20;;;;;;4994696;28;20176;-81
2022/06/16 03:48:48;;;;;;;7.87;2.83;;;13.40;99.20;;;;;;4994517;28;20175;-80
2022/06/16 03:51:14;;;;;;;6.60;2.73;;;13.50;99.60;;;;;;4993990;28;20666;-81
2022/06/16 03:53:40;;;;;;;9.87;3.03;;;13.40;99.60;;;;;;4994665;28;20172;-80
2022/06/16 03:56:07;;;;;;;10.17;3.10;;;13.30;99.90;;;;;;4994987;28;20196;-80
2022/06/16 03:58:33;;;;;;;9.07;3.33;;;13.50;99.90;;;;;;4994372;28;20175;-81
2022/06/16 04:00:59;;;;;;;8.43;3.40;;;13.40;99.90;;;;;;4993584;28;20270;-80
2022/06/16 04:06:13;;;;;;;9.23;3.37;;;13.40;99.90;;;;;;4995513;28;20231;-81
2022/06/16 04:08:39;;;;;;;10.10;3.47;;;13.40;99.90;;;;;;4994104;28;20212;-81
2022/06/16 04:11:26;;;;;;;5.67;2.97;;;13.40;99.90;;;;;;4993471;28;20639;-81
2022/06/16 04:13:51;;;;;;;6.93;3.00;;;13.30;99.90;;;;;;4995289;28;20242;-80
2022/06/16 04:16:17;;;;;;;8.97;3.53;;;13.20;99.90;;;;;;4995686;28;20217;-80
2022/06/16 04:18:43;;;;;;;8.70;3.70;;;13.20;99.90;;;;;;4993779;28;20620;-81
2022/06/16 04:21:12;;;;;;;4.10;3.13;;;13.30;99.90;;;;;;4993517;28;20171;-81
2022/06/16 04:23:39;;;;;;;5.60;2.97;;;13.30;99.90;;;;;;4994235;28;20209;-81
2022/06/16 04:26:05;;;;;;;8.47;3.60;;;13.60;99.90;;;;;;4993511;28;20183;-80
2022/06/16 04:28:31;;;;;;;6.13;2.93;;;13.70;99.90;;;;;;4993301;28;20658;-80
2022/06/16 04:30:58;;;;;;;6.57;3.37;;;14.00;99.90;;;;;;4993882;28;20175;-80
2022/06/16 04:33:24;;;;;;;7.23;2.93;;;14.10;99.90;;;;;;4993412;28;20235;-81
2022/06/16 04:35:50;;;;;;;12.40;2.93;;;14.50;99.90;;;;;;4994142;28;20223;-82
2022/06/16 04:38:16;;;;;;;4.33;2.53;;;14.90;99.90;;;;;;4993875;28;20214;-81
2022/06/16 04:40:42;;;;;;;5.67;2.57;;;15.00;99.90;;;;;;4994780;28;20584;-80
2022/06/16 04:43:08;;;;;;;6.77;2.90;;;15.10;99.90;;;;;;4993495;28;20282;-81
2022/06/16 04:45:33;;;;;;;8.50;2.73;;;15.50;99.90;;;;;;4993558;28;20542;-80
2022/06/16 04:47:59;;;;;;;5.60;2.50;;;15.60;99.90;;;;;;4992961;28;20195;-80
2022/06/16 04:50:25;;;;;;;5.93;2.60;;;15.80;99.90;;;;;;4992844;28;20199;-80
2022/06/16 04:52:51;;;;;;;3.50;2.30;;;16.00;99.90;;;;;;4993845;28;20199;-81
2022/06/16 04:55:17;;;;;;;5.93;2.38;;;16.10;99.30;;;;;;4996870;28;20186;-82
2022/06/16 04:57:43;;;;;;;6.88;2.60;;;16.20;99.10;;;;;;4997143;28;20313;-82
2022/06/16 05:00:14;;;;;;;5.18;2.85;;;15.90;99.40;;;;;;4996325;28;20924;-82
2022/06/16 05:02:40;;;;;;;4.87;2.57;;;15.30;99.90;;;;;;4997518;28;20254;-82
2022/06/16 05:05:06;;;;;;;7.90;2.80;;;15.10;99.90;;;;;;4997458;28;20172;-82
2022/06/16 05:07:32;;;;;;;10.83;3.10;;;15.00;99.90;;;;;;4999291;28;20202;-82
2022/06/16 05:09:57;;;;;;;7.40;3.07;;;15.00;99.90;;;;;;4997675;28;20191;-82
2022/06/16 05:12:23;;;;;;;6.97;3.40;;;15.10;99.90;;;;;;4997474;28;20214;-81
2022/06/16 05:14:49;;;;;;;5.77;3.10;;;14.90;99.90;;;;;;4997035;28;20237;-83
2022/06/16 05:17:15;;;;;;;12.37;3.60;;;14.60;99.90;;;;;;4998263;28;20698;-82
2022/06/16 05:19:41;;;;;;;7.90;3.23;;;14.50;99.90;;;;;;4997654;28;20183;-82
2022/06/16 05:22:07;;;;;;;7.17;3.30;;;14.40;99.90;;;;;;4996054;28;20249;-80
2022/06/16 05:24:33;;;;;;;6.50;3.83;;;14.20;99.90;;;;;;4996331;28;20171;-82
2022/06/16 05:27:00;;;;;;;8.53;3.63;;;14.50;99.90;;;;;;4997012;28;20187;-82
2022/06/16 05:29:26;;;;;;;5.67;3.00;;;14.80;99.90;;;;;;4996181;28;20187;-81
2022/06/16 05:31:52;;;;;;;6.33;3.83;;;15.50;99.90;;;;;;4997200;28;20619;-81
2022/06/16 05:34:18;;;;;;;5.20;3.27;;;15.50;99.90;;;;;;4996678;28;20763;-82
2022/06/16 05:36:45;;;;;;;8.73;3.70;;;15.50;99.90;;;;;;4995959;28;20227;-81
2022/06/16 05:39:11;;;;;;;5.67;3.40;;;15.20;99.90;;;;;;4995827;28;20262;-82
2022/06/16 05:41:37;;;;;;;6.57;3.50;;;15.10;99.90;;;;;;4995423;28;20202;-82
2022/06/16 05:44:03;;;;;;;8.37;4.27;;;15.00;99.90;;;;;;4996323;28;20175;-81
2022/06/16 05:46:28;;;;;;;7.93;3.87;;;14.90;99.90;;;;;;4996198;28;20198;-81
2022/06/16 05:48:54;;;;;;;8.43;3.70;;;14.90;99.90;;;;;;4996271;28;20188;-80
2022/06/16 05:51:23;;;;;;;7.37;3.90;;;15.20;99.90;;;;;;4998779;28;20199;-81
2022/06/16 05:53:49;;;;;;;10.40;3.90;;;15.20;99.90;;;;;;4999652;28;20179;-82
2022/06/16 05:56:15;;;;;;;10.13;4.00;;;15.10;99.90;;;;;;5000014;28;20208;-81
2022/06/16 05:58:42;;;;;;;9.53;4.20;;;15.10;99.90;;;;;;4999909;28;20203;-81
2022/06/16 06:01:08;;;;;;;6.83;3.77;;;15.00;99.90;;;;;;4997919;28;20175;-81
2022/06/16 06:03:35;;;;;;;6.33;3.70;;;15.10;99.90;;;;;;4999491;28;20171;-80
2022/06/16 06:06:01;;;;;;;7.07;4.00;;;15.00;99.90;;;;;;5000261;28;20550;-80
2022/06/16 06:16:44;;;;;;;7.87;3.27;;;17.00;99.90;;;;;;4998251;28;20194;-81
2022/06/16 06:19:26;;;;;;;4.50;2.67;;;17.50;99.90;;;;;;4995305;28;20187;-83
2022/06/16 06:22:16;;;;;;;6.82;3.05;;;17.90;99.70;;;;;;4995461;28;20195;-83
2022/06/16 06:24:57;;;;;;;7.28;2.80;;;18.20;99.60;;;;;;4995388;28;20233;-85
2022/06/16 06:27:37;;;;;;;9.88;2.80;;;18.40;99.10;;;;;;4995047;28;20179;-83
2022/06/16 06:30:05;;;;;;;4.03;2.72;;;18.20;99.00;;;;;;4995408;28;20274;-83
2022/06/16 06:32:31;;;;;;;5.50;2.40;;;18.60;98.40;;;;;;4996018;28;20660;-84
2022/06/16 06:34:57;;;;;;;4.22;2.17;;;18.90;98.40;;;;;;4995642;28;20184;-83
2022/06/16 06:37:24;;;;;;;3.55;2.25;;;19.20;97.30;;;;;;4995297;28;20199;-83
2022/06/16 06:39:51;;;;;;;7.65;2.35;;;19.20;96.40;;;;;;4994764;28;20230;-82
2022/06/16 06:42:17;;;;;;;5.78;2.00;;;19.60;96.30;;;;;;4995405;28;20222;-82
2022/06/16 06:44:43;;;;;;;4.75;2.10;;;19.80;95.40;;;;;;4995324;28;20179;-85
2022/06/16 06:47:19;;;;;;;2.58;2.03;;;20.10;95.10;;;;;;4994959;28;20218;-83
2022/06/16 06:49:45;;;;;;;2.63;1.70;;;20.50;94.40;;;;;;4994851;28;20601;-83
2022/06/16 06:52:11;;;;;;;4.82;1.67;;;20.20;93.70;;;;;;4994845;28;20217;-83
2022/06/16 06:54:37;;;;;;;3.80;2.00;;;19.80;93.50;;;;;;4995388;28;20703;-83
2022/06/16 06:57:03;;;;;;;4.78;1.73;;;19.60;94.60;;;;;;4994744;28;20803;-83
2022/06/16 06:59:28;;;;;;;4.00;1.90;;;19.60;94.00;;;;;;4994728;28;20184;-83
2022/06/16 07:01:54;;;;;;;1.40;1.30;;;18.90;94.70;;;;;;4996118;28;20199;-84
2022/06/16 07:04:21;;;;;;;3.10;1.40;;;19.70;94.20;;;;;;4998059;28;20171;-82
2022/06/16 07:06:47;;;;;;;3.28;1.30;;;20.00;92.70;;;;;;4996144;28;20632;-82
2022/06/16 07:09:14;;;;;;;2.95;1.23;;;20.40;92.00;;;;;;5001384;28;20633;-82
2022/06/16 07:11:41;;;;;;;3.50;1.15;;;20.70;91.00;;;;;;4998899;28;20201;-82
2022/06/16 07:14:07;;;;;;;1.80;1.25;;;20.70;90.90;;;;;;4997840;28;20672;-82
2022/06/16 07:16:33;;;;;;;2.83;1.20;;;21.00;92.20;;;;;;4998050;28;20577;-82
2022/06/16 07:18:59;;;;;;;2.05;1.20;;;21.40;90.90;;;;;;5001271;28;20178;-81
2022/06/16 07:21:25;;;;;;;4.57;1.15;;;21.10;90.70;;;;;;4999744;28;20282;-82
2022/06/16 07:23:51;;;;;;;3.08;1.40;;;21.30;91.10;;;;;;4999584;28;20598;-82
2022/06/16 07:26:18;;;;;;;1.15;1.00;;;21.20;90.50;;;;;;4998875;28;20180;-81
2022/06/16 07:28:44;;;;;;;2.13;1.27;;;21.60;90.20;;;;;;4999803;28;20221;-81
2022/06/16 07:31:09;;;;;;;5.60;1.42;;;21.60;90.30;;;;;;4999435;28;20912;-83
2022/06/16 07:33:35;;;;;;;3.75;1.38;;;21.60;90.00;;;;;;5000726;28;20218;-83
2022/06/16 07:36:01;;;;;;;2.22;1.30;;;21.30;90.00;;;;;;5001280;28;20196;-82
2022/06/16 07:38:27;;;;;;;2.80;1.55;;;21.90;90.30;;;;;;5000176;28;20202;-82
2022/06/16 07:41:30;;;;;;;2.15;1.42;;;22.20;89.90;;;;;;4999948;28;20532;-83
2022/06/16 07:43:38;;;;;;;1.33;1.20;;;22.50;89.30;;;;;;5001868;28;20229;-83
2022/06/16 07:46:04;;;;;;;3.00;1.35;;;21.80;90.30;;;;;;4999097;28;20171;-82
2022/06/16 07:48:29;;;;;;;1.40;1.30;;;21.90;89.10;;;;;;5000473;28;20190;-81
2022/06/16 07:50:55;;;;;;;4.40;1.30;;;21.90;88.30;;;;;;4998430;28;20650;-83
2022/06/16 07:53:21;;;;;;;1.85;1.15;;;22.50;90.00;;;;;;5000324;28;20285;-82
2022/06/16 07:55:46;;;;;;;2.22;1.05;;;22.50;87.60;;;;;;4997857;28;20289;-81
2022/06/16 07:58:12;;;;;;;2.22;1.02;;;22.50;88.60;;;;;;4999620;28;20242;-82
2022/06/16 08:00:38;;;;;;;2.55;1.38;;;22.20;86.70;;;;;;4999582;28;20174;-82
2022/06/16 08:03:04;;;;;;;3.58;1.02;;;22.20;87.70;;;;;;4998521;28;20187;-82
2022/06/16 08:05:30;;;;;;;6.00;1.08;;;22.00;87.10;;;;;;4999187;28;20233;-82
2022/06/16 08:07:56;;;;;;;1.45;1.00;;;22.80;87.50;;;;;;5000348;28;20182;-83
2022/06/16 08:10:25;;;;;;;1.42;1.13;;;23.30;82.50;;;;;;4998473;28;20175;-82
2022/06/16 08:12:50;;;;;;;1.05;0.95;;;23.20;82.80;;;;;;4998663;28;20275;-82
2022/06/16 08:15:16;;;;;;;2.67;1.20;;;23.10;81.90;;;;;;4998103;28;20187;-81
2022/06/16 08:17:45;;;;;;;2.65;1.25;;;23.00;82.30;;;;;;4998295;28;20199;-82
2022/06/16 08:20:11;;;;;;;1.42;1.08;;;22.50;83.30;;;;;;4996782;28;20167;-82
2022/06/16 08:22:37;;;;;;;2.60;0.95;;;23.10;82.90;;;;;;4996449;28;20194;-83
2022/06/16 08:25:06;;;;;;;1.35;1.00;;;23.40;84.40;;;;;;4998265;28;20171;-81
2022/06/16 08:27:34;;;;;;;7.90;1.20;;;23.50;82.90;;;;;;4998576;28;20262;-82
2022/06/16 08:30:03;;;;;;;2.90;1.20;;;23.70;81.60;;;;;;4996975;28;20179;-82
2022/06/16 08:32:28;;;;;;;2.38;1.20;;;24.00;80.50;;;;;;5001181;28;20202;-81
2022/06/16 08:34:54;;;;;;;1.75;1.30;;;23.80;80.50;;;;;;4997482;28;20188;-82
2022/06/16 08:37:21;;;;;;;1.05;1.00;;;23.80;78.60;;;;;;4997902;28;20246;-82
2022/06/16 08:39:47;;;;;;;1.25;1.10;;;23.40;81.80;;;;;;4997508;28;20175;-81
2022/06/16 08:42:52;;;;;;;2.35;1.10;;;23.50;79.60;;;;;;4998889;28;20226;-82
2022/06/16 08:45:49;;;;;;;2.80;0.90;;;23.70;79.30;;;;;;4942236;29;20176;-81
2022/06/16 08:48:23;;;;;;;0.85;0.85;;;23.60;80.70;;;;;;4941406;29;20213;-82
2022/06/16 08:51:10;;;;;;;1.90;1.10;;;23.90;77.60;;;;;;4982020;28;20195;-82
2022/06/16 08:54:13;;;;;;;1.77;1.00;;;23.40;79.60;;;;;;4998263;28;20626;-81
2022/06/16 08:56:59;;;;;;;3.72;1.38;;;23.30;79.10;;;;;;4997621;28;20207;-82
2022/06/16 09:00:13;;;;;;;1.85;1.17;;;23.70;78.30;;;;;;4996720;28;20254;-83
2022/06/16 09:02:58;;;;;;;1.10;1.00;;;24.20;77.90;;;;;;4988188;28;20287;-82
2022/06/16 09:05:37;;;;;;;1.95;1.05;;;23.90;79.70;;;;;;4997136;28;20171;-82
2022/06/16 09:08:11;;;;;;;2.17;1.25;;;24.70;77.80;;;;;;4996551;28;20683;-82
2022/06/16 09:10:54;;;;;;;2.15;1.10;;;24.50;78.00;;;;;;4996170;28;20174;-82
2022/06/16 09:13:30;;;;;;;2.00;1.10;;;24.10;78.60;;;;;;4996295;28;20564;-82
2022/06/16 09:16:28;;;;;;;9.43;1.17;;;24.60;76.60;;;;;;4996871;28;20209;-82
2022/06/16 09:19:14;;;;;;;1.27;1.00;;;24.30;77.10;;;;;;4997802;28;20178;-81
2022/06/16 09:22:09;;;;;;;2.10;0.93;;;24.10;78.30;;;;;;4997586;28;20194;-82
2022/06/16 09:25:10;;;;;;;2.10;1.10;;;23.60;77.50;;;;;;4997526;28;20167;-81
2022/06/16 09:27:45;;;;;;;1.63;0.90;;;24.30;77.90;;;;;;4963010;28;20561;-81
2022/06/16 09:30:16;;;;;;;5.78;1.25;;;25.00;75.70;;;;;;4995850;28;20198;-82
2022/06/16 09:32:49;;;;;;;3.22;1.90;;;24.60;77.70;;;;;;5002057;28;20601;-82
2022/06/16 09:35:21;;;;;;;2.65;1.60;;;25.10;78.60;;;;;;5003219;28;20175;-81
2022/06/16 09:38:04;;;;;;;3.08;1.42;;;24.80;76.70;;;;;;5002208;28;20213;-82
2022/06/16 09:40:51;;;;;;;2.25;1.20;;;25.20;75.80;;;;;;5003120;28;20164;-82
2022/06/16 09:43:22;;;;;;;1.33;1.13;;;25.70;75.60;;;;;;5002127;28;20278;-81
2022/06/16 09:45:57;;;;;;;4.82;1.50;;;25.50;75.50;;;;;;5004396;28;20198;-82
2022/06/16 09:48:41;;;;;;;1.40;1.30;;;24.80;76.10;;;;;;5002610;28;20205;-80
2022/06/16 09:51:14;;;;;;;1.92;1.20;;;24.90;78.10;;;;;;5001741;28;20198;-82
2022/06/16 09:54:15;;;;;;;2.42;1.20;;;25.20;77.10;;;;;;5003169;28;20199;-82
2022/06/16 09:56:50;;;;;;;1.90;1.20;;;25.20;78.10;;;;;;5001676;28;20667;-82
2022/06/16 09:59:48;;;;;;;3.10;1.45;;;25.80;76.50;;;;;;5004333;28;20182;-82
2022/06/16 10:02:20;;;;;;;1.45;1.20;;;25.70;75.70;;;;;;5002574;28;20203;-82
2022/06/16 10:04:50;;;;;;;2.13;1.42;;;25.60;76.20;;;;;;5003646;28;20222;-81
2022/06/16 10:07:28;;;;;;;2.83;1.52;;;25.30;77.10;;;;;;5001885;28;20187;-82
2022/06/16 10:10:17;;;;;;;1.20;1.13;;;25.80;79.00;;;;;;5003053;28;20178;-80
2022/06/16 10:13:11;;;;;;;3.97;1.40;;;25.20;77.10;;;;;;5001875;28;20285;-82
2022/06/16 10:15:47;;;;;;;5.10;1.25;;;25.10;77.80;;;;;;5001978;28;20171;-81
2022/06/16 10:18:14;;;;;;;3.47;1.63;;;25.10;76.00;;;;;;5002370;28;20171;-81
2022/06/16 10:20:40;;;;;;;3.40;1.65;;;24.50;76.10;;;;;;5001671;28;20238;-81
2022/06/16 10:23:24;;;;;;;3.42;1.48;;;25.50;76.60;;;;;;5002066;28;20199;-81
2022/06/16 10:25:56;;;;;;;3.08;1.63;;;25.40;75.40;;;;;;5002979;28;20164;-81
2022/06/16 10:28:28;;;;;;;5.07;2.05;;;25.20;76.70;;;;;;5001192;28;20172;-80
2022/06/16 10:30:55;;;;;;;7.13;1.60;;;25.50;76.50;;;;;;5000981;28;20171;-81
2022/06/16 10:33:36;;;;;;;3.35;1.75;;;26.20;75.40;;;;;;5002725;28;20234;-81
2022/06/16 10:36:22;;;;;;;2.42;1.67;;;25.40;75.30;;;;;;5000724;28;20199;-83
2022/06/16 10:39:30;;;;;;;2.05;1.73;;;25.90;77.00;;;;;;4999288;28;20176;-81
2022/06/16 10:42:20;;;;;;;3.35;1.83;;;26.30;75.00;;;;;;4997379;28;20218;-81
2022/06/16 10:44:53;;;;;;;1.80;1.48;;;26.40;74.90;;;;;;5002044;28;20179;-82
2022/06/16 10:47:39;;;;;;;2.72;1.30;;;26.00;76.10;;;;;;5004947;28;20571;-82
2022/06/16 10:50:07;;;;;;;2.67;1.52;;;25.50;77.80;;;;;;5001476;28;20194;-82
2022/06/16 10:52:40;;;;;;;4.78;1.65;;;26.50;76.80;;;;;;4999018;28;20203;-82
2022/06/16 10:55:11;;;;;;;5.18;1.70;;;26.90;74.90;;;;;;5002337;28;20202;-82
2022/06/16 10:57:45;;;;;;;2.45;1.90;;;26.50;75.20;;;;;;5002287;28;20270;-81
2022/06/16 11:00:14;;;;;;;3.65;2.17;;;26.30;74.00;;;;;;5001974;28;20218;-81
2022/06/16 11:03:06;;;;;;;1.90;1.50;;;26.20;74.50;;;;;;5000540;28;20652;-81
2022/06/16 11:05:38;;;;;;;5.72;1.60;;;26.70;74.90;;;;;;5001111;28;20175;-82
2022/06/16 11:08:12;;;;;;;6.88;2.45;;;26.40;75.90;;;;;;4999491;28;20171;-82
2022/06/16 11:10:41;;;;;;;7.15;2.15;;;26.70;73.60;;;;;;4999113;28;20175;-82
2022/06/16 11:13:14;;;;;;;4.20;1.65;;;26.70;74.30;;;;;;5000327;28;20294;-82
2022/06/16 11:15:41;;;;;;;2.92;1.67;;;26.90;75.30;;;;;;5001739;28;20211;-82
2022/06/16 11:18:16;;;;;;;2.90;1.60;;;26.70;73.10;;;;;;5004589;28;20246;-82
2022/06/16 11:20:45;;;;;;;8.25;1.95;;;25.80;74.30;;;;;;5000444;28;20202;-82
2022/06/16 11:23:28;;;;;;;9.23;1.92;;;26.40;74.80;;;;;;4999296;28;20192;-82
2022/06/16 11:26:17;;;;;;;5.43;1.75;;;27.60;74.40;;;;;;5000461;28;20167;-81
2022/06/16 11:28:45;;;;;;;1.95;1.40;;;27.60;72.40;;;;;;5000538;28;20167;-81
2022/06/16 11:31:19;;;;;;;4.50;1.73;;;26.60;74.80;;;;;;4999830;28;20176;-82
2022/06/16 11:36:51;;;;;;;2.17;1.63;;;26.80;73.50;;;;;;5000427;28;20198;-81
2022/06/16 11:39:29;;;;;;;4.25;1.65;;;28.00;73.60;;;;;;5000296;28;20176;-82
2022/06/16 11:41:56;;;;;;;2.38;1.70;;;27.50;73.90;;;;;;5000583;28;20671;-82
2022/06/16 11:44:27;;;;;;;5.22;1.60;;;27.40;72.30;;;;;;4999713;28;20171;-82
2022/06/16 11:47:30;;;;;;;5.30;1.90;;;27.60;74.20;;;;;;4999739;28;20262;-82
2022/06/16 11:50:05;;;;;;;3.35;2.00;;;27.70;74.20;;;;;;4999520;28;20198;-81
2022/06/16 11:52:45;;;;;;;3.80;1.80;;;28.10;73.40;;;;;;5000692;28;20286;-82
2022/06/16 11:55:22;;;;;;;4.40;1.75;;;27.70;74.50;;;;;;4999495;28;20171;-82
2022/06/16 11:57:50;;;;;;;3.60;2.15;;;26.60;75.40;;;;;;4999793;28;20246;-82
2022/06/16 12:00:41;;;;;;;2.08;1.75;;;26.60;73.00;;;;;;4999086;28;20190;-82
2022/06/16 12:03:29;;;;;;;3.28;1.52;;;27.00;73.50;;;;;;4998283;28;20203;-82
2022/06/16 12:06:16;;;;;;;2.15;1.70;;;27.10;73.50;;;;;;4998947;28;20175;-82
2022/06/16 12:09:07;;;;;;;5.88;2.10;;;26.30;73.80;;;;;;5002780;28;20176;-81
2022/06/16 12:11:38;;;;;;;4.50;1.80;;;25.50;75.00;;;;;;5001768;28;20191;-81
2022/06/16 12:14:19;;;;;;;7.25;2.40;;;24.80;75.40;;;;;;4997643;28;20640;-81
2022/06/16 12:16:59;;;;;;;3.55;1.88;;;25.20;75.70;;;;;;4998344;28;20199;-82
2022/06/16 12:19:47;;;;;;;2.13;1.63;;;25.10;77.00;;;;;;4998579;28;20175;-82
2022/06/16 12:22:33;;;;;;;2.55;1.80;;;26.20;76.30;;;;;;4996603;28;20187;-82
2022/06/16 12:25:35;;;;;;;4.38;1.60;;;26.70;74.50;;;;;;4996884;28;20177;-81
2022/06/16 12:28:13;;;;;;;3.58;1.85;;;26.40;75.40;;;;;;5000924;28;20248;-82
2022/06/16 12:30:55;;;;;;;3.40;1.85;;;25.20;77.00;;;;;;4998949;28;20264;-82
2022/06/16 12:33:21;;;;;;;3.78;1.70;;;24.90;76.80;;;;;;4996926;28;20195;-82
2022/06/16 12:36:03;;;;;;;5.07;1.60;;;25.00;76.30;;;;;;4999517;28;20204;-81
2022/06/16 12:38:33;;;;;;;5.15;1.92;;;25.70;77.20;;;;;;4999292;28;20229;-82
2022/06/16 12:41:09;;;;;;;4.18;2.17;;;25.10;76.70;;;;;;5000437;28;20206;-81
2022/06/16 12:44:03;;;;;;;2.78;1.88;;;24.80;75.40;;;;;;4998801;28;20657;-82
2022/06/16 12:46:44;;;;;;;4.28;1.80;;;24.50;76.10;;;;;;4992888;28;20187;-81
2022/06/16 12:49:17;;;;;;;4.80;1.88;;;24.90;77.20;;;;;;4998539;28;20179;-81
2022/06/16 12:51:49;;;;;;;1.70;1.60;;;25.10;76.10;;;;;;4998023;28;20634;-81
2022/06/16 12:54:32;;;;;;;11.13;2.00;;;25.50;74.80;;;;;;4999958;28;20172;-80
2022/06/16 12:57:05;;;;;;;15.35;2.17;;;24.70;74.90;;;;;;5001623;28;20222;-81
2022/06/16 12:59:57;;;;;;;12.57;3.40;;;24.50;75.20;;;;;;4999466;28;20163;-81
2022/06/16 13:02:28;;;;;;;3.30;1.67;;;24.50;77.10;;;;;;4996745;28;20190;-82
2022/06/16 13:04:57;;;;;;;4.35;1.70;;;25.40;73.50;;;;;;4998294;28;20164;-88
2022/06/16 13:07:27;;;;;;;4.13;1.70;;;25.20;73.70;;;;;;4998777;28;20569;-83
2022/06/16 13:09:53;;;;;;;2.10;1.80;;;25.30;74.20;;;;;;4999634;28;20183;-86
2022/06/16 13:12:25;;;;;;;6.85;1.70;;;25.30;76.50;;;;;;4996720;28;20261;-83
2022/06/16 13:15:09;;;;;;;3.10;1.60;;;25.30;74.30;;;;;;4998387;28;20203;-84
2022/06/16 13:17:46;;;;;;;12.50;1.73;;;25.40;74.80;;;;;;4998480;28;20685;-83
2022/06/16 13:20:15;;;;;;;3.90;1.70;;;24.90;75.20;;;;;;4997696;28;20164;-84
2022/06/16 13:23:01;;;;;;;3.67;1.60;;;25.10;73.60;;;;;;4996760;28;20199;-83
2022/06/16 13:25:50;;;;;;;5.88;1.80;;;25.50;75.10;;;;;;4998188;28;20174;-83
2022/06/16 13:28:35;;;;;;;3.38;1.60;;;25.70;73.80;;;;;;4999252;28;20175;-84
2022/06/16 13:31:10;;;;;;;7.47;1.50;;;25.50;74.90;;;;;;4996451;28;20179;-80
2022/06/16 13:33:54;;;;;;;2.40;1.70;;;24.60;73.30;;;;;;4998475;28;20185;-85